Time;durP1;ratioP1;P1;durP2;ratioP2;P2;SDS_P1;SDS_P2;PMS_P1;PMS_P2;Temp;Humidity;BMP_temperature;BMP_pressure;BME280_temperature;BME280_humidity;BME280_pressure;Samples;Min_cycle;Max_cycle;Signal;HPM_P1;HPM_P2
2023/09/14 00:01:22;;;;;;;6.13;3.90;;;;;13.10;101689.00;;;;10160811;29;20425;-79
2023/09/14 00:06:24;;;;;;;7.50;3.50;;;;;13.00;101693.00;;;;10145329;29;20214;-78
2023/09/14 00:11:25;;;;;;;4.87;3.70;;;;;12.90;101687.00;;;;10131249;29;20219;-76
2023/09/14 00:16:26;;;;;;;6.03;3.50;;;;;12.80;101690.00;;;;10141141;29;20618;-77
2023/09/14 00:21:30;;;;;;;6.20;3.57;;;;;12.80;101693.00;;;;10123346;29;20692;-77
2023/09/14 00:26:32;;;;;;;6.37;3.67;;;;;12.70;101692.00;;;;10131476;29;20274;-77
2023/09/14 00:31:36;;;;;;;6.37;3.00;;;;;12.60;101698.00;;;;10155541;29;20215;-75
2023/09/14 00:36:37;;;;;;;8.17;4.10;;;;;12.60;101693.00;;;;10146870;29;20773;-76
2023/09/14 00:41:38;;;;;;;6.87;4.03;;;;;12.60;101696.00;;;;10170611;29;20406;-82
2023/09/14 00:46:40;;;;;;;6.03;4.10;;;;;12.60;101694.00;;;;10165323;29;20263;-83
2023/09/14 00:51:41;;;;;;;6.17;3.87;;;;;12.60;101701.00;;;;10154413;29;20210;-81
2023/09/14 00:56:42;;;;;;;8.50;3.70;;;;;12.50;101697.00;;;;10158872;29;20773;-81
2023/09/14 01:01:44;;;;;;;8.70;3.80;;;;;12.40;101696.00;;;;10165264;29;20207;-82
2023/09/14 01:06:45;;;;;;;4.93;3.63;;;;;12.30;101700.00;;;;10165432;29;20233;-79
2023/09/14 01:11:47;;;;;;;6.70;4.33;;;;;12.30;101700.00;;;;10136224;29;20285;-82
2023/09/14 01:16:57;;;;;;;7.03;3.60;;;;;12.20;101702.00;;;;10150496;29;20859;-81
2023/09/14 01:22:27;;;;;;;5.80;3.53;;;;;12.20;101699.00;;;;10144152;29;20211;-81
2023/09/14 01:27:29;;;;;;;6.93;4.33;;;;;12.10;101692.00;;;;10160481;29;20367;-80
2023/09/14 01:32:31;;;;;;;7.27;4.67;;;;;12.10;101698.00;;;;10153320;29;20262;-81
2023/09/14 01:37:32;;;;;;;8.30;4.23;;;;;12.10;101687.00;;;;10165550;29;20217;-82
2023/09/14 01:42:36;;;;;;;6.73;3.97;;;;;12.10;101694.00;;;;10147286;29;20235;-81
2023/09/14 01:47:37;;;;;;;5.90;4.40;;;;;12.10;101699.00;;;;10162709;29;20271;-80
2023/09/14 01:52:38;;;;;;;9.40;5.17;;;;;12.00;101700.00;;;;10140241;29;20881;-80
2023/09/14 01:57:40;;;;;;;8.17;5.67;;;;;12.00;101697.00;;;;10149334;29;20227;-80
2023/09/14 02:02:41;;;;;;;7.33;5.10;;;;;11.90;101702.00;;;;10160035;29;20237;-80
2023/09/14 02:07:42;;;;;;;7.70;5.10;;;;;11.90;101702.00;;;;10159552;29;20773;-81
2023/09/14 02:12:45;;;;;;;7.73;5.07;;;;;11.90;101691.00;;;;10151157;29;20221;-80
2023/09/14 02:17:46;;;;;;;11.47;4.70;;;;;11.80;101684.00;;;;10130348;29;20213;-80
2023/09/14 02:22:47;;;;;;;7.47;4.60;;;;;11.80;101688.00;;;;10147708;29;20211;-79
2023/09/14 02:27:48;;;;;;;8.07;4.43;;;;;11.70;101691.00;;;;10147302;29;20250;-80
2023/09/14 02:32:50;;;;;;;8.77;4.70;;;;;11.70;101691.00;;;;10146963;29;20223;-80
2023/09/14 02:37:51;;;;;;;6.87;4.40;;;;;11.60;101692.00;;;;10140485;29;20203;-80
2023/09/14 02:42:53;;;;;;;5.60;4.53;;;;;11.50;101688.00;;;;10128216;29;20208;-79
2023/09/14 02:47:54;;;;;;;8.83;4.40;;;;;11.50;101677.00;;;;10133561;29;20226;-80
2023/09/14 02:52:56;;;;;;;8.53;4.63;;;;;11.50;101681.00;;;;10132279;29;20214;-80
2023/09/14 02:57:57;;;;;;;6.63;4.90;;;;;11.50;101678.00;;;;10135229;28;20189;-83
2023/09/14 03:02:58;;;;;;;8.77;5.10;;;;;11.40;101685.00;;;;10191067;29;20303;-80
2023/09/14 03:08:01;;;;;;;8.87;5.23;;;;;11.40;101682.00;;;;10178115;29;20230;-81
2023/09/14 03:13:03;;;;;;;7.97;5.10;;;;;11.40;101678.00;;;;10197504;29;20238;-87
2023/09/14 03:18:05;;;;;;;8.73;5.27;;;;;11.40;101677.00;;;;10179675;29;20215;-79
2023/09/14 03:23:07;;;;;;;6.93;4.90;;;;;11.30;101676.00;;;;10314356;23;20236;-78
2023/09/14 03:28:08;;;;;;;6.63;4.20;;;;;11.30;101671.00;;;;10241674;29;20273;-78
2023/09/14 03:33:10;;;;;;;8.27;4.20;;;;;11.20;101669.00;;;;10214373;29;20206;-86
2023/09/14 03:38:12;;;;;;;10.60;4.60;;;;;11.20;101664.00;;;;10276954;23;20249;-78
2023/09/14 03:43:15;;;;;;;9.43;4.97;;;;;11.20;101668.00;;;;10212945;28;20210;-82
2023/09/14 03:48:16;;;;;;;9.07;4.40;;;;;11.20;101664.00;;;;10199831;29;20227;-85
2023/09/14 03:53:17;;;;;;;16.27;5.83;;;;;11.30;101669.00;;;;10172108;29;20241;-81
2023/09/14 03:58:19;;;;;;;7.30;4.40;;;;;11.30;101676.00;;;;10177761;28;20229;-78
2023/09/14 04:03:21;;;;;;;7.33;4.40;;;;;11.30;101672.00;;;;10161125;29;20211;-82
2023/09/14 04:08:24;;;;;;;9.30;4.77;;;;;11.20;101668.00;;;;10208373;29;20533;-77
2023/09/14 04:13:32;;;;;;;6.80;4.70;;;;;11.20;101663.00;;;;10146308;29;20289;-76
2023/09/14 04:18:38;;;;;;;6.13;4.23;;;;;11.10;101665.00;;;;10138543;29;20214;-77
2023/09/14 04:23:40;;;;;;;9.43;5.43;;;;;11.10;101661.00;;;;10139591;29;20542;-76
2023/09/14 04:28:45;;;;;;;6.83;4.97;;;;;11.10;101664.00;;;;10140430;29;20954;-77
2023/09/14 04:33:47;;;;;;;8.20;4.90;;;;;11.00;101661.00;;;;10118173;29;20207;-80
2023/09/14 04:38:50;;;;;;;7.20;4.97;;;;;11.00;101658.00;;;;10158701;29;20574;-75
2023/09/14 04:43:51;;;;;;;8.13;4.73;;;;;11.00;101659.00;;;;10146038;29;20745;-76
2023/09/14 04:48:53;;;;;;;10.13;5.10;;;;;10.90;101665.00;;;;10137074;29;20346;-77
2023/09/14 04:53:54;;;;;;;10.40;4.80;;;;;10.90;101668.00;;;;10137534;29;20219;-74
2023/09/14 04:58:57;;;;;;;12.17;5.77;;;;;10.90;101672.00;;;;10167417;29;20207;-77
2023/09/14 05:03:59;;;;;;;6.57;4.20;;;;;10.90;101678.00;;;;10126202;29;20305;-75
2023/09/14 05:09:05;;;;;;;11.70;5.43;;;;;10.90;101680.00;;;;10144101;29;20231;-75
2023/09/14 05:14:06;;;;;;;9.37;5.27;;;;;10.90;101679.00;;;;10115779;29;20207;-76
2023/09/14 05:19:08;;;;;;;7.10;5.53;;;;;10.90;101682.00;;;;10142192;29;20215;-78
2023/09/14 05:24:09;;;;;;;14.13;6.00;;;;;10.90;101692.00;;;;10155350;29;20215;-78
2023/09/14 05:29:10;;;;;;;9.87;5.50;;;;;11.00;101680.00;;;;10141495;29;20234;-77
2023/09/14 05:34:12;;;;;;;16.77;6.60;;;;;11.00;101678.00;;;;10157804;29;20255;-76
2023/09/14 05:39:14;;;;;;;10.90;6.47;;;;;11.10;101682.00;;;;10135821;29;20716;-77
2023/09/14 05:44:16;;;;;;;13.93;7.63;;;;;11.20;101682.00;;;;10170114;29;20265;-81
2023/09/14 05:49:18;;;;;;;27.20;16.53;;;;;11.30;101687.00;;;;10130965;29;20238;-77
2023/09/14 05:54:19;;;;;;;38.03;25.23;;;;;11.40;101692.00;;;;10160796;29;20262;-76
2023/09/14 05:59:21;;;;;;;44.33;33.93;;;;;11.50;101684.00;;;;10134389;29;20302;-79
2023/09/14 06:04:34;;;;;;;40.73;25.27;;;;;11.70;101682.00;;;;10130929;29;20759;-77
2023/09/14 06:09:36;;;;;;;43.47;24.73;;;;;12.00;101688.00;;;;10158074;29;20249;-77
2023/09/14 06:14:37;;;;;;;53.93;22.17;;;;;12.20;101690.00;;;;10156441;29;21535;-78
2023/09/14 06:19:38;;;;;;;17.13;12.33;;;;;12.40;101694.00;;;;10134791;29;20219;-77
2023/09/14 06:24:40;;;;;;;15.90;9.13;;;;;12.60;101699.00;;;;10171050;28;20592;-76
2023/09/14 06:29:41;;;;;;;9.13;7.80;;;;;12.60;101703.00;;;;10155444;29;20206;-77
2023/09/14 06:34:42;;;;;;;9.27;7.20;;;;;12.80;101703.00;;;;10137919;29;20222;-80
2023/09/14 06:39:44;;;;;;;11.47;7.03;;;;;13.10;101699.00;;;;10152039;29;20663;-77
2023/09/14 06:44:45;;;;;;;9.60;6.20;;;;;13.30;101703.00;;;;10144265;29;20231;-76
2023/09/14 06:49:47;;;;;;;11.40;8.73;;;;;13.70;101695.00;;;;10107322;29;20294;-77
2023/09/14 06:54:48;;;;;;;10.90;9.68;;;;;14.10;101688.00;;;;10169795;29;20231;-76
2023/09/14 06:59:49;;;;;;;10.85;9.75;;;;;14.40;101697.00;;;;10137908;29;20211;-81
2023/09/14 07:04:50;;;;;;;12.27;10.00;;;;;14.60;101697.00;;;;10141127;29;20249;-76
2023/09/14 07:09:52;;;;;;;14.73;10.13;;;;;15.00;101701.00;;;;10160019;29;20301;-77
2023/09/14 07:14:53;;;;;;;13.23;10.15;;;;;15.20;101702.00;;;;10150123;29;20230;-77
2023/09/14 07:19:55;;;;;;;16.33;10.88;;;;;15.50;101704.00;;;;10152904;29;20577;-79
2023/09/14 07:24:56;;;;;;;17.67;9.75;;;;;15.80;101701.00;;;;10132748;29;20223;-76
2023/09/14 07:29:57;;;;;;;13.82;10.30;;;;;15.90;101706.00;;;;10155478;29;20298;-76
2023/09/14 07:35:01;;;;;;;14.68;11.00;;;;;16.30;101710.00;;;;10149538;29;20416;-77
2023/09/14 07:40:03;;;;;;;14.98;11.75;;;;;16.60;101706.00;;;;10134060;29;20266;-79
2023/09/14 07:45:05;;;;;;;15.00;11.77;;;;;17.00;101714.00;;;;10124009;29;20234;-80
2023/09/14 07:50:07;;;;;;;16.42;11.40;;;;;17.30;101710.00;;;;10111809;29;20222;-80
2023/09/14 07:55:08;;;;;;;16.67;13.13;;;;;17.60;101715.00;;;;10119795;29;20756;-76
2023/09/14 08:00:10;;;;;;;17.05;13.00;;;;;17.90;101713.00;;;;10150283;29;20243;-75
2023/09/14 08:05:14;;;;;;;19.10;14.35;;;;;18.30;101719.00;;;;10154523;29;20313;-76
2023/09/14 08:10:16;;;;;;;15.68;12.25;;;;;18.80;101724.00;;;;10176781;29;20215;-79
2023/09/14 08:15:17;;;;;;;15.00;11.00;;;;;19.10;101725.00;;;;10167964;29;20213;-76
2023/09/14 08:20:19;;;;;;;12.77;9.55;;;;;19.40;101720.00;;;;10129418;29;20238;-77
2023/09/14 08:25:20;;;;;;;14.15;10.77;;;;;19.80;101724.00;;;;10158848;29;20364;-76
2023/09/14 08:30:22;;;;;;;11.77;9.02;;;;;20.40;101722.00;;;;10155754;29;20218;-79
2023/09/14 08:35:28;;;;;;;12.10;9.15;;;;;20.90;101731.00;;;;10184446;29;20290;-76
2023/09/14 08:40:30;;;;;;;12.63;8.88;;;;;21.40;101734.00;;;;10146829;29;20218;-78
2023/09/14 08:45:32;;;;;;;9.35;6.72;;;;;21.80;101734.00;;;;10172710;29;20227;-76
2023/09/14 08:50:34;;;;;;;9.93;7.28;;;;;22.30;101735.00;;;;10166013;29;20871;-79
2023/09/14 08:55:35;;;;;;;9.50;6.85;;;;;22.50;101733.00;;;;10166418;29;20225;-79
2023/09/14 09:00:37;;;;;;;8.25;6.13;;;;;22.60;101731.00;;;;10165532;29;20513;-79
2023/09/14 09:05:41;;;;;;;5.63;5.03;;;;;22.80;101734.00;;;;10144793;29;20241;-78
2023/09/14 09:10:43;;;;;;;6.43;4.88;;;;;23.20;101716.00;;;;10143013;29;20217;-79
2023/09/14 09:15:44;;;;;;;6.70;5.43;;;;;23.60;101713.00;;;;10152331;29;20207;-79
2023/09/14 09:20:46;;;;;;;5.97;4.80;;;;;23.90;101716.00;;;;10144454;29;20214;-79
2023/09/14 09:25:51;;;;;;;5.18;4.70;;;;;24.30;101719.00;;;;10158933;29;20227;-79
2023/09/14 09:30:54;;;;;;;8.00;5.00;;;;;24.60;101724.00;;;;10126014;29;20343;-80
2023/09/14 09:36:00;;;;;;;6.57;4.35;;;;;24.80;101721.00;;;;10168491;29;20199;-79
2023/09/14 09:41:09;;;;;;;5.40;4.50;;;;;25.10;101712.00;;;;10162404;29;20708;-78
2023/09/14 09:46:15;;;;;;;7.40;5.13;;;;;25.50;101706.00;;;;10168138;29;20236;-78
2023/09/14 09:51:21;;;;;;;4.45;3.92;;;;;25.80;101703.00;;;;10135193;29;20207;-80
2023/09/14 09:56:23;;;;;;;8.75;4.32;;;;;26.00;101699.00;;;;10153443;29;20258;-79
2023/09/14 10:01:24;;;;;;;4.30;3.90;;;;;26.10;101699.00;;;;10129669;29;20306;-87
2023/09/14 10:06:26;;;;;;;4.97;3.90;;;;;26.00;101703.00;;;;10169048;29;20445;-85
2023/09/14 10:11:28;;;;;;;4.97;3.40;;;;;25.90;101703.00;;;;10157444;29;20702;-87
2023/09/14 10:16:38;;;;;;;7.82;3.60;;;;;26.10;101706.00;;;;10155135;29;20215;-84
2023/09/14 10:21:40;;;;;;;5.40;3.75;;;;;26.20;101699.00;;;;10135410;29;20254;-85
2023/09/14 10:26:43;;;;;;;5.50;3.05;;;;;26.20;101702.00;;;;10144398;29;20749;-83
2023/09/14 10:31:47;;;;;;;4.55;3.67;;;;;26.40;101697.00;;;;10167540;29;20740;-86
2023/09/14 10:36:51;;;;;;;3.28;2.85;;;;;26.60;101685.00;;;;10168062;29;20310;-85
2023/09/14 10:41:54;;;;;;;5.50;3.05;;;;;27.00;101690.00;;;;10151638;29;20207;-82
2023/09/14 10:46:58;;;;;;;4.45;3.05;;;;;27.10;101691.00;;;;10158934;29;20228;-84
2023/09/14 10:52:03;;;;;;;3.80;2.53;;;;;27.30;101688.00;;;;10179145;29;20219;-83
2023/09/14 10:57:20;;;;;;;3.95;2.75;;;;;27.30;101687.00;;;;10173672;29;20210;-86
2023/09/14 11:02:39;;;;;;;3.13;2.20;;;;;27.10;101682.00;;;;10155991;29;20218;-87
2023/09/14 11:07:58;;;;;;;3.58;2.78;;;;;26.70;101672.00;;;;10183126;29;20778;-76
2023/09/14 11:13:19;;;;;;;5.53;3.08;;;;;25.80;101674.00;;;;10181621;29;20211;-76
2023/09/14 11:18:34;;;;;;;3.97;2.60;;;;;26.00;101657.00;;;;10152419;29;20225;-76
2023/09/14 11:23:36;;;;;;;4.78;2.38;;;;;26.60;101661.00;;;;10134975;29;20855;-76
2023/09/14 11:28:37;;;;;;;3.60;2.55;;;;;27.10;101649.00;;;;10165087;29;20278;-77
2023/09/14 11:33:42;;;;;;;2.55;2.28;;;;;26.30;101654.00;;;;10169867;29;20309;-77
2023/09/14 11:38:48;;;;;;;3.47;2.20;;;;;25.70;101654.00;;;;10178543;29;20211;-77
2023/09/14 11:44:04;;;;;;;4.22;2.83;;;;;25.10;101645.00;;;;10157743;29;20237;-76
2023/09/14 11:49:30;;;;;;;3.15;2.60;;;;;25.30;101653.00;;;;10184241;29;20562;-76
2023/09/14 11:54:32;;;;;;;5.45;2.30;;;;;25.80;101648.00;;;;10177222;29;20758;-77
2023/09/14 11:59:34;;;;;;;2.80;2.50;;;;;25.00;101659.00;;;;10148585;29;20243;-78
2023/09/14 12:04:36;;;;;;;3.05;2.03;;;;;24.10;101653.00;;;;10174807;29;20254;-78
2023/09/14 12:09:40;;;;;;;3.03;2.40;;;;;23.60;101648.00;;;;10146547;29;20212;-78
2023/09/14 12:14:45;;;;;;;3.65;2.70;;;;;23.10;101653.00;;;;10146594;29;20274;-77
2023/09/14 12:19:51;;;;;;;4.25;2.72;;;;;22.70;101643.00;;;;10182764;29;20203;-78
2023/09/14 12:24:54;;;;;;;3.00;2.67;;;;;22.40;101646.00;;;;10173094;29;20210;-75
2023/09/14 12:29:57;;;;;;;3.47;2.75;;;;;23.20;101634.00;;;;10151515;29;20312;-77
2023/09/14 12:34:59;;;;;;;3.47;2.70;;;;;24.80;101630.00;;;;10161908;29;20577;-78
2023/09/14 12:40:10;;;;;;;3.25;1.85;;;;;25.70;101624.00;;;;10167274;29;20910;-77
2023/09/14 12:45:15;;;;;;;2.75;2.22;;;;;26.30;101628.00;;;;10149268;29;20258;-77
2023/09/14 12:50:16;;;;;;;3.47;2.45;;;;;26.50;101630.00;;;;10163730;29;20219;-78
2023/09/14 12:55:18;;;;;;;3.70;2.20;;;;;26.10;101626.00;;;;10188928;29;20272;-77
2023/09/14 13:00:24;;;;;;;3.65;2.20;;;;;25.00;101615.00;;;;10166601;29;20418;-76
2023/09/14 13:05:27;;;;;;;3.90;2.05;;;;;25.80;101613.00;;;;10159547;29;20309;-76
2023/09/14 13:10:30;;;;;;;2.67;2.00;;;;;25.30;101608.00;;;;10133647;29;20219;-78
2023/09/14 13:15:33;;;;;;;4.07;2.25;;;;;24.40;101604.00;;;;10161392;29;20226;-77
2023/09/14 13:20:36;;;;;;;4.78;2.00;;;;;23.70;101597.00;;;;10173077;29;20263;-78
2023/09/14 13:25:38;;;;;;;6.25;2.30;;;;;23.30;101605.00;;;;10170835;29;20223;-78
2023/09/14 13:30:40;;;;;;;2.25;2.05;;;;;22.90;101591.00;;;;10167839;29;20219;-79
2023/09/14 13:35:42;;;;;;;3.55;2.00;;;;;22.90;101580.00;;;;10150935;29;20603;-79
2023/09/14 13:40:44;;;;;;;2.33;1.70;;;;;24.30;101579.00;;;;10165231;29;20217;-79
2023/09/14 13:45:45;;;;;;;3.45;1.85;;;;;24.60;101577.00;;;;10178128;29;20779;-80
2023/09/14 13:50:47;;;;;;;3.70;1.88;;;;;25.10;101571.00;;;;10158471;29;20257;-79
2023/09/14 13:55:50;;;;;;;4.22;1.83;;;;;25.00;101562.00;;;;10148551;29;20226;-79
2023/09/14 14:00:52;;;;;;;4.50;1.77;;;;;25.70;101563.00;;;;10130156;29;20242;-80
2023/09/14 14:05:53;;;;;;;3.25;2.20;;;;;25.40;101554.00;;;;10171717;29;20233;-79
2023/09/14 14:10:54;;;;;;;6.22;1.90;;;;;26.20;101553.00;;;;10183588;29;20209;-80
2023/09/14 14:15:56;;;;;;;3.90;1.60;;;;;27.20;101539.00;;;;10167034;29;20219;-79
2023/09/14 14:20:57;;;;;;;2.15;1.90;;;;;26.60;101533.00;;;;10175998;29;20202;-79
2023/09/14 14:25:59;;;;;;;2.90;1.98;;;;;25.50;101538.00;;;;10158155;29;20229;-79
2023/09/14 14:31:00;;;;;;;3.78;1.83;;;;;25.00;101537.00;;;;10146974;29;20334;-79
2023/09/14 14:36:02;;;;;;;2.80;2.03;;;;;24.60;101534.00;;;;10144242;29;20211;-78
2023/09/14 14:41:03;;;;;;;3.30;1.83;;;;;24.20;101524.00;;;;10153207;29;20225;-84
2023/09/14 14:46:25;;;;;;;4.80;2.20;;;;;23.70;101532.00;;;;10182199;29;20659;-84
2023/09/14 14:51:27;;;;;;;2.95;1.90;;;;;23.70;101522.00;;;;10173540;29;20221;-86
2023/09/14 14:56:28;;;;;;;3.40;1.80;;;;;23.80;101518.00;;;;10155261;29;20254;-85
2023/09/14 15:01:30;;;;;;;4.68;2.05;;;;;23.60;101525.00;;;;10142752;29;20261;-84
2023/09/14 15:06:31;;;;;;;2.55;1.95;;;;;23.40;101516.00;;;;10156923;29;20230;-85
2023/09/14 15:11:32;;;;;;;3.65;1.65;;;;;23.10;101512.00;;;;10161664;29;20298;-86
2023/09/14 15:16:34;;;;;;;4.25;2.10;;;;;23.00;101511.00;;;;10135886;29;20215;-82
2023/09/14 15:21:35;;;;;;;2.92;1.85;;;;;23.00;101509.00;;;;10153565;29;20871;-85
2023/09/14 15:26:37;;;;;;;4.57;1.70;;;;;22.90;101509.00;;;;10172736;29;20234;-81
2023/09/14 15:31:40;;;;;;;4.07;1.92;;;;;23.00;101509.00;;;;10177729;29;20214;-80
2023/09/14 15:36:44;;;;;;;4.05;1.85;;;;;22.90;101506.00;;;;10182480;29;20203;-80
2023/09/14 15:41:50;;;;;;;3.55;1.77;;;;;22.80;101503.00;;;;10164059;29;20347;-85
2023/09/14 15:46:51;;;;;;;3.33;1.80;;;;;22.80;101505.00;;;;10146980;29;20309;-85
2023/09/14 15:51:53;;;;;;;2.28;1.80;;;;;22.50;101500.00;;;;10176849;29;20294;-80
2023/09/14 15:56:54;;;;;;;3.28;1.80;;;;;22.10;101494.00;;;;10129804;29;20291;-81
2023/09/14 16:01:56;;;;;;;1.90;1.45;;;;;21.80;101494.00;;;;10148269;29;20672;-81
2023/09/14 16:06:57;;;;;;;4.28;1.70;;;;;21.60;101494.00;;;;10181668;29;20226;-82
2023/09/14 16:12:03;;;;;;;2.33;1.83;;;;;21.40;101494.00;;;;10157708;29;20285;-82
2023/09/14 16:17:05;;;;;;;2.90;1.77;;;;;21.30;101495.00;;;;10160339;29;20211;-82
2023/09/14 16:22:06;;;;;;;2.08;1.70;;;;;21.30;101498.00;;;;10140349;29;20603;-82
2023/09/14 16:27:07;;;;;;;4.47;1.65;;;;;21.30;101494.00;;;;10131554;29;20599;-82
2023/09/14 16:32:09;;;;;;;5.93;2.00;;;;;21.20;101488.00;;;;10147376;29;20730;-82
2023/09/14 16:37:11;;;;;;;3.63;1.70;;;;;21.10;101486.00;;;;10160931;29;20214;-82
2023/09/14 16:42:12;;;;;;;2.67;2.05;;;;;21.00;101489.00;;;;10164282;29;20726;-82
2023/09/14 16:47:17;;;;;;;2.58;1.70;;;;;20.90;101483.00;;;;10154137;29;20241;-82
2023/09/14 16:52:18;;;;;;;2.72;1.80;;;;;20.80;101486.00;;;;10153359;29;20242;-81
2023/09/14 16:57:20;;;;;;;3.17;1.70;;;;;20.70;101482.00;;;;10149865;29;20310;-80
2023/09/14 17:02:23;;;;;;;3.42;1.70;;;;;20.50;101476.00;;;;10131648;29;20812;-78
2023/09/14 17:07:25;;;;;;;2.13;1.77;;;;;20.40;101477.00;;;;10133816;29;20694;-79
2023/09/14 17:12:27;;;;;;;2.75;1.70;;;;;20.30;101483.00;;;;10166183;29;20277;-80
2023/09/14 17:17:28;;;;;;;2.38;1.70;;;;;20.10;101489.00;;;;10138350;29;20626;-79
2023/09/14 17:22:29;;;;;;;4.45;2.00;;;;;20.00;101488.00;;;;10145059;29;20262;-80
2023/09/14 17:27:31;;;;;;;7.68;1.77;;;;;19.90;101483.00;;;;10164559;29;20237;-82
2023/09/14 17:32:32;;;;;;;2.15;1.63;;;;;19.70;101488.00;;;;10145936;29;20214;-79
2023/09/14 17:37:34;;;;;;;2.95;1.70;;;;;19.60;101486.00;;;;10139427;29;20347;-79
2023/09/14 17:42:35;;;;;;;2.35;1.95;;;;;19.40;101483.00;;;;10146678;29;20211;-80
2023/09/14 17:47:39;;;;;;;2.33;1.70;;;;;19.20;101474.00;;;;10163892;29;20319;-79
2023/09/14 17:52:40;;;;;;;3.40;1.83;;;;;19.00;101481.00;;;;10117111;29;20219;-82
2023/09/14 17:57:43;;;;;;;3.08;1.77;;;;;18.80;101479.00;;;;10118851;29;20233;-79
2023/09/14 18:02:48;;;;;;;4.22;2.10;;;;;18.70;101488.00;;;;10140039;29;20241;-79
2023/09/14 18:07:51;;;;;;;5.25;1.90;;;;;18.60;101484.00;;;;10151779;29;20251;-76
2023/09/14 18:12:52;;;;;;;5.22;2.00;;;;;18.40;101494.00;;;;10145774;29;20227;-81
2023/09/14 18:17:54;;;;;;;4.03;1.80;;;;;18.20;101493.00;;;;10142875;29;20253;-77
2023/09/14 18:22:55;;;;;;;3.03;1.92;;;;;18.10;101491.00;;;;10111928;29;20203;-79
2023/09/14 18:27:57;;;;;;;3.40;1.83;;;;;18.00;101488.00;;;;10120421;29;20326;-77
2023/09/14 18:32:58;;;;;;;3.95;2.20;;;;;17.90;101489.00;;;;10147012;29;20233;-76
2023/09/14 18:38:00;;;;;;;2.90;2.00;;;;;17.70;101499.00;;;;10170724;29;20242;-78
2023/09/14 18:43:01;;;;;;;5.00;2.63;;;;;17.60;101492.00;;;;10151531;29;20582;-76
2023/09/14 18:48:03;;;;;;;2.90;2.17;;;;;17.40;101490.00;;;;10133079;29;20715;-76
2023/09/14 18:53:07;;;;;;;2.25;1.85;;;;;17.30;101498.00;;;;10127443;29;20700;-76
2023/09/14 18:58:09;;;;;;;4.05;2.10;;;;;17.10;101501.00;;;;10140758;29;20230;-76
2023/09/14 19:03:10;;;;;;;2.60;2.08;;;;;16.80;101497.00;;;;10158376;29;20244;-78
2023/09/14 19:08:12;;;;;;;5.20;2.60;;;;;16.70;101498.00;;;;10157704;29;20214;-76
2023/09/14 19:13:13;;;;;;;3.92;2.28;;;;;16.70;101506.00;;;;10150747;29;20211;-79
2023/09/14 19:18:15;;;;;;;4.10;2.60;;;;;16.70;101505.00;;;;10153615;29;20218;-78
2023/09/14 19:23:16;;;;;;;7.68;2.78;;;;;16.60;101510.00;;;;10157135;29;20236;-77
2023/09/14 19:28:18;;;;;;;4.80;2.47;;;;;16.60;101511.00;;;;10162633;29;20803;-78
2023/09/14 19:33:19;;;;;;;3.95;2.80;;;;;16.50;101506.00;;;;10147310;29;20230;-78
2023/09/14 19:38:21;;;;;;;4.03;3.00;;;;;16.40;101499.00;;;;10151863;29;20227;-79
2023/09/14 19:43:23;;;;;;;7.03;3.42;;;;;16.20;101511.00;;;;10169232;29;20680;-77
2023/09/14 19:48:27;;;;;;;5.25;2.80;;;;;16.10;101509.00;;;;10157857;29;20649;-82
2023/09/14 19:53:28;;;;;;;4.65;3.13;;;;;15.90;101502.00;;;;10134330;29;20314;-78
2023/09/14 19:58:41;;;;;;;5.60;3.40;;;;;15.80;101500.00;;;;10168453;29;20230;-77
2023/09/14 20:03:43;;;;;;;5.60;3.80;;;;;15.80;101500.00;;;;10158391;29;20776;-77
2023/09/14 20:08:44;;;;;;;5.07;3.42;;;;;15.80;101498.00;;;;10178066;29;20223;-76
2023/09/14 20:13:46;;;;;;;6.00;3.80;;;;;15.80;101515.00;;;;10164263;29;20215;-77
2023/09/14 20:18:48;;;;;;;4.45;3.85;;;;;15.70;101509.00;;;;10153411;29;20210;-79
2023/09/14 20:23:49;;;;;;;7.22;4.40;;;;;15.70;101510.00;;;;10131824;29;20247;-76
2023/09/14 20:28:51;;;;;;;4.55;3.75;;;;;15.70;101505.00;;;;10148614;29;20222;-78
2023/09/14 20:33:52;;;;;;;3.50;3.10;;;;;15.80;101514.00;;;;10154184;29;20338;-77
2023/09/14 20:38:55;;;;;;;8.50;3.28;;;;;15.80;101506.00;;;;10167660;29;20218;-77
2023/09/14 20:43:57;;;;;;;6.28;3.25;;;;;15.70;101498.00;;;;10147830;29;20207;-78
2023/09/14 20:49:02;;;;;;;5.13;2.92;;;;;15.70;101495.00;;;;10165964;29;20238;-76
2023/09/14 20:54:03;;;;;;;3.67;2.90;;;;;15.60;101495.00;;;;10128469;29;20215;-77
2023/09/14 20:59:05;;;;;;;5.45;3.58;;;;;15.50;101491.00;;;;10143898;29;20218;-79
2023/09/14 21:04:07;;;;;;;4.47;2.90;;;;;15.40;101482.00;;;;10112771;29;20214;-78
2023/09/14 21:09:10;;;;;;;6.65;3.00;;;;;15.40;101477.00;;;;10155214;29;20250;-76
2023/09/14 21:14:12;;;;;;;4.25;3.20;;;;;15.40;101463.00;;;;10144311;29;20217;-77
2023/09/14 21:19:13;;;;;;;7.65;3.50;;;;;15.20;101467.00;;;;10152432;29;20597;-77
2023/09/14 21:24:15;;;;;;;4.22;3.40;;;;;15.10;101474.00;;;;10131475;29;20715;-77
2023/09/14 21:29:16;;;;;;;3.10;2.80;;;;;15.00;101474.00;;;;10160815;29;20746;-77
2023/09/14 21:34:17;;;;;;;3.75;3.03;;;;;15.10;101473.00;;;;10149246;29;20872;-76
2023/09/14 21:39:19;;;;;;;4.05;2.97;;;;;15.10;101479.00;;;;10158612;29;20692;-79
2023/09/14 21:44:20;;;;;;;4.10;2.90;;;;;15.10;101465.00;;;;10149602;29;20226;-79
2023/09/14 21:49:33;;;;;;;3.83;2.90;;;;;15.10;101470.00;;;;10143630;29;20237;-80
2023/09/14 21:54:36;;;;;;;4.65;3.38;;;;;15.00;101456.00;;;;10116287;29;20300;-80
2023/09/14 21:59:38;;;;;;;3.70;3.03;;;;;14.90;101451.00;;;;10161923;29;20224;-80
2023/09/14 22:04:39;;;;;;;5.88;3.58;;;;;15.00;101451.00;;;;10151027;29;20845;-80
2023/09/14 22:09:41;;;;;;;4.50;3.30;;;;;15.00;101447.00;;;;10132886;29;20290;-79
2023/09/14 22:14:42;;;;;;;5.10;3.45;;;;;14.90;101449.00;;;;10153540;29;20829;-80
2023/09/14 22:19:45;;;;;;;4.45;3.65;;;;;14.90;101440.00;;;;10153786;29;20253;-80
2023/09/14 22:24:47;;;;;;;4.07;3.42;;;;;14.90;101445.00;;;;10165854;29;20266;-79
2023/09/14 22:29:48;;;;;;;5.88;3.92;;;;;14.80;101438.00;;;;10150684;29;20253;-80
2023/09/14 22:34:49;;;;;;;5.15;4.20;;;;;14.70;101438.00;;;;10138696;29;20646;-79
2023/09/14 22:39:51;;;;;;;6.78;3.72;;;;;14.80;101435.00;;;;10169563;29;20206;-80
2023/09/14 22:44:53;;;;;;;6.57;3.58;;;;;14.70;101443.00;;;;10134320;29;20211;-80
2023/09/14 22:49:55;;;;;;;6.00;4.00;;;;;14.60;101432.00;;;;10145854;29;20235;-79
2023/09/14 22:54:57;;;;;;;4.78;3.60;;;;;14.40;101434.00;;;;10143066;29;20803;-79
2023/09/14 22:59:58;;;;;;;5.45;4.25;;;;;14.30;101435.00;;;;10163161;29;20262;-76
2023/09/14 23:05:01;;;;;;;8.27;4.38;;;;;14.20;101427.00;;;;10139044;29;20215;-77
2023/09/14 23:10:04;;;;;;;5.82;3.95;;;;;14.10;101433.00;;;;10155498;29;20227;-77
2023/09/14 23:15:08;;;;;;;5.93;4.40;;;;;14.10;101426.00;;;;10142906;29;20206;-77
2023/09/14 23:20:23;;;;;;;5.85;3.80;;;;;14.00;101422.00;;;;10157708;29;20203;-76
2023/09/14 23:25:25;;;;;;;7.00;4.23;;;;;13.90;101422.00;;;;10148098;29;20253;-76
2023/09/14 23:30:27;;;;;;;5.53;3.80;;;;;13.70;101418.00;;;;10126854;29;20642;-77
2023/09/14 23:35:28;;;;;;;4.83;3.50;;;;;13.60;101423.00;;;;10177853;29;20226;-80
2023/09/14 23:40:32;;;;;;;7.67;4.23;;;;;13.50;101422.00;;;;10157086;29;20207;-75
2023/09/14 23:45:34;;;;;;;6.93;4.23;;;;;13.40;101409.00;;;;10170637;29;20442;-78
2023/09/14 23:50:35;;;;;;;7.73;5.30;;;;;13.40;101407.00;;;;10163526;29;20210;-75
2023/09/14 23:55:36;;;;;;;6.43;5.10;;;;;13.40;101409.00;;;;10169039;29;20214;-78
